createdAt,value
2018-08-19T00:02:21.666Z,28.70
2018-08-19T00:05:05.782Z,28.80
2018-08-19T00:07:35.329Z,28.70
2018-08-19T00:10:05.267Z,28.70
2018-08-19T00:12:40.857Z,28.70
2018-08-19T00:15:10.217Z,28.70
2018-08-19T00:17:39.966Z,28.60
2018-08-19T00:20:12.183Z,28.70
2018-08-19T00:22:42.099Z,28.60
2018-08-19T00:25:16.177Z,28.60
2018-08-19T00:27:45.662Z,28.60
2018-08-19T00:30:15.001Z,28.60
2018-08-19T00:32:44.688Z,28.60
2018-08-19T00:35:13.986Z,28.70
2018-08-19T00:37:43.479Z,28.70
2018-08-19T00:40:12.885Z,28.70
2018-08-19T00:42:43.867Z,28.70
2018-08-19T00:45:13.665Z,28.60
2018-08-19T00:47:42.995Z,28.60
2018-08-19T00:50:12.297Z,28.60
2018-08-19T00:52:41.719Z,28.60
2018-08-19T00:55:11.200Z,28.50
2018-08-19T00:57:43.160Z,28.50
2018-08-19T01:00:12.394Z,28.60
2018-08-19T01:02:41.676Z,28.60
2018-08-19T01:05:11.083Z,28.50
2018-08-19T01:07:40.460Z,28.50
2018-08-19T01:10:09.936Z,28.50
2018-08-19T01:12:39.278Z,28.50
2018-08-19T01:15:12.187Z,28.50
2018-08-19T01:17:41.977Z,28.50
2018-08-19T01:20:12.792Z,28.50
2018-08-19T01:22:43.344Z,28.50
2018-08-19T01:25:14.302Z,28.40
2018-08-19T01:27:43.633Z,28.50
2018-08-19T01:30:16.112Z,28.50
2018-08-19T01:32:45.498Z,28.50
2018-08-19T01:35:15.112Z,28.50
2018-08-19T01:37:44.469Z,28.40
2018-08-19T01:40:17.531Z,28.50
2018-08-19T01:42:47.594Z,28.50
2018-08-19T01:45:16.886Z,28.50
2018-08-19T01:47:46.238Z,28.40
2018-08-19T01:50:16.815Z,28.40
2018-08-19T01:52:48.676Z,28.40
2018-08-19T01:55:18.228Z,28.40
2018-08-19T01:57:48.601Z,28.40
2018-08-19T02:00:18.638Z,28.40
2018-08-19T02:03:01.529Z,28.40
2018-08-19T02:05:30.801Z,28.50
2018-08-19T02:08:02.410Z,28.40
2018-08-19T02:10:32.896Z,28.40
2018-08-19T02:13:02.566Z,28.40
2018-08-19T02:15:32.739Z,28.40
2018-08-19T02:18:03.345Z,28.40
2018-08-19T02:20:34.768Z,28.30
2018-08-19T02:23:06.307Z,28.30
2018-08-19T02:25:40.482Z,28.30
2018-08-19T02:28:10.651Z,28.30
2018-08-19T02:31:03.374Z,28.30
2018-08-19T02:33:34.803Z,28.30
2018-08-19T02:36:06.697Z,28.30
2018-08-19T02:38:37.121Z,28.20
2018-08-19T02:41:06.930Z,28.20
2018-08-19T02:43:46.432Z,28.20
2018-08-19T02:46:15.855Z,28.20
2018-08-19T02:48:48.062Z,28.20
2018-08-19T02:51:20.583Z,28.10
2018-08-19T02:53:51.023Z,28.20
2018-08-19T02:56:20.948Z,28.20
2018-08-19T02:58:50.208Z,28.20
2018-08-19T03:01:19.697Z,28.20
2018-08-19T03:03:49.056Z,28.20
2018-08-19T03:06:18.502Z,28.20
2018-08-19T03:08:52.951Z,28.10
2018-08-19T03:11:22.639Z,28.10
2018-08-19T03:13:51.887Z,28.10
2018-08-19T03:16:21.234Z,28.00
2018-08-19T03:18:52.831Z,28.00
2018-08-19T03:21:23.119Z,28.00
2018-08-19T03:23:53.779Z,28.00
2018-08-19T03:26:23.096Z,28.00
2018-08-19T03:28:52.383Z,27.90
2018-08-19T03:31:24.759Z,28.00
2018-08-19T03:33:54.104Z,27.90
2018-08-19T03:36:23.428Z,27.90
2018-08-19T03:38:53.922Z,27.90
2018-08-19T03:41:23.227Z,27.90
2018-08-19T03:43:58.383Z,27.90
2018-08-19T03:46:29.172Z,27.90
2018-08-19T03:48:58.476Z,27.90
2018-08-19T03:51:27.758Z,27.90
2018-08-19T03:53:57.093Z,27.90
2018-08-19T03:56:26.344Z,27.80
2018-08-19T03:58:59.835Z,27.80
2018-08-19T04:01:41.918Z,27.80
2018-08-19T04:04:12.716Z,27.80
2018-08-19T04:06:42.111Z,27.80
2018-08-19T04:09:11.346Z,27.80
2018-08-19T04:11:40.868Z,27.80
2018-08-19T04:14:26.604Z,27.80
2018-08-19T04:16:58.297Z,27.80
2018-08-19T04:19:28.186Z,27.70
2018-08-19T04:22:00.977Z,27.80
2018-08-19T04:24:30.992Z,27.70
2018-08-19T04:27:04.116Z,27.70
2018-08-19T04:29:34.423Z,27.80
2018-08-19T04:32:04.808Z,27.80
2018-08-19T04:34:34.144Z,27.80
2018-08-19T04:37:03.425Z,27.70
2018-08-19T04:39:32.703Z,27.80
2018-08-19T04:42:02.044Z,27.80
2018-08-19T04:44:31.346Z,27.80
2018-08-19T04:47:01.251Z,27.80
2018-08-19T04:49:30.515Z,27.80
2018-08-19T04:52:00.917Z,27.80
2018-08-19T04:54:30.356Z,27.80
2018-08-19T04:56:59.642Z,27.70
2018-08-19T04:59:28.947Z,27.70
2018-08-19T05:01:58.228Z,27.70
2018-08-19T05:04:27.532Z,27.70
2018-08-19T05:06:56.852Z,27.70
2018-08-19T05:09:26.171Z,27.70
2018-08-19T05:11:55.579Z,27.70
2018-08-19T05:14:24.822Z,27.70
2018-08-19T05:16:54.057Z,27.70
2018-08-19T05:19:23.370Z,27.70
2018-08-19T05:21:54.554Z,27.70
2018-08-19T05:24:23.874Z,27.70
2018-08-19T05:26:57.541Z,27.70
2018-08-19T05:29:26.856Z,27.70
2018-08-19T05:31:58.746Z,27.70
2018-08-19T05:34:37.602Z,27.70
2018-08-19T05:37:06.927Z,27.70
2018-08-19T05:39:36.488Z,27.70
2018-08-19T05:42:11.339Z,27.70
2018-08-19T05:44:41.387Z,27.60
2018-08-19T05:47:13.681Z,27.60
2018-08-19T05:49:44.122Z,27.60
2018-08-19T05:52:20.505Z,27.60
2018-08-19T05:54:53.855Z,27.60
2018-08-19T05:57:23.253Z,27.70
2018-08-19T05:59:53.742Z,27.60
2018-08-19T06:02:30.954Z,27.60
2018-08-19T06:05:00.924Z,27.60
2018-08-19T06:07:30.451Z,27.60
2018-08-19T06:09:59.874Z,27.60
2018-08-19T06:12:29.165Z,27.60
2018-08-19T06:15:00.601Z,27.60
2018-08-19T06:17:29.904Z,27.50
2018-08-19T06:19:59.267Z,27.60
2018-08-19T06:22:42.922Z,27.60
2018-08-19T06:25:15.720Z,27.60
2018-08-19T06:27:47.621Z,27.60
2018-08-19T06:30:17.915Z,27.60
2018-08-19T06:32:48.328Z,27.60
2018-08-19T06:35:18.180Z,27.60
2018-08-19T06:37:48.617Z,27.70
2018-08-19T06:40:22.059Z,27.70
2018-08-19T06:42:51.545Z,27.70
2018-08-19T06:45:21.090Z,27.70
2018-08-19T06:47:51.459Z,27.80
2018-08-19T06:50:29.811Z,27.70
2018-08-19T06:52:59.958Z,27.70
2018-08-19T06:55:29.659Z,27.70
2018-08-19T06:58:00.146Z,27.70
2018-08-19T07:00:31.574Z,27.80
2018-08-19T07:03:04.411Z,27.80
2018-08-19T07:05:34.431Z,27.80
2018-08-19T07:08:03.831Z,27.80
2018-08-19T07:10:38.560Z,27.80
2018-08-19T07:13:16.376Z,27.80
2018-08-19T07:15:45.737Z,27.90
2018-08-19T07:18:16.259Z,27.90
2018-08-19T07:20:45.968Z,27.90
2018-08-19T07:23:15.291Z,28.00
2018-08-19T07:25:45.517Z,28.00
2018-08-19T07:28:16.644Z,28.00
2018-08-19T07:30:46.004Z,28.00
2018-08-19T07:33:15.618Z,28.10
2018-08-19T07:35:44.907Z,28.10
2018-08-19T07:38:14.303Z,28.20
2018-08-19T07:40:43.599Z,28.20
2018-08-19T07:43:12.903Z,28.20
2018-08-19T07:45:42.226Z,28.30
2018-08-19T07:48:11.572Z,28.30
2018-08-19T07:50:41.167Z,28.30
2018-08-19T07:53:10.461Z,28.40
2018-08-19T07:55:39.805Z,28.40
2018-08-19T07:58:09.344Z,28.40
2018-08-19T08:00:40.179Z,28.50
2018-08-19T08:03:09.887Z,28.50
2018-08-19T08:05:44.323Z,28.50
2018-08-19T08:08:13.604Z,28.60
2018-08-19T08:10:43.028Z,28.60
2018-08-19T08:13:13.453Z,28.70
2018-08-19T08:16:00.374Z,28.80
2018-08-19T08:18:29.835Z,28.80
2018-08-19T08:21:04.238Z,28.90
2018-08-19T08:23:33.588Z,29.00
2018-08-19T08:26:02.946Z,29.00
2018-08-19T08:28:32.279Z,29.10
2018-08-19T08:31:01.829Z,29.10
2018-08-19T08:33:31.255Z,29.20
2018-08-19T08:36:00.510Z,29.20
2018-08-19T08:38:29.907Z,29.30
2018-08-19T08:40:59.364Z,29.30
2018-08-19T08:43:28.645Z,29.40
2018-08-19T08:45:59.231Z,29.40
2018-08-19T08:48:34.147Z,29.50
2018-08-19T08:51:03.864Z,29.50
2018-08-19T08:53:43.696Z,29.60
2018-08-19T08:56:13.319Z,29.70
2018-08-19T08:58:43.087Z,29.70
2018-08-19T09:01:12.480Z,29.70
2018-08-19T09:03:41.793Z,29.80
2018-08-19T09:06:18.098Z,29.90
2018-08-19T09:08:47.525Z,29.90
2018-08-19T09:11:18.285Z,30.00
2018-08-19T09:13:47.737Z,30.00
2018-08-19T09:16:17.092Z,30.00
2018-08-19T09:18:46.396Z,30.10
2018-08-19T09:21:16.188Z,30.20
2018-08-19T09:23:45.570Z,30.20
2018-08-19T09:26:15.198Z,30.20
2018-08-19T09:28:44.678Z,30.30
2018-08-19T09:31:14.011Z,30.30
2018-08-19T09:33:43.330Z,30.30
2018-08-19T09:36:12.771Z,30.50
2018-08-19T09:38:42.143Z,30.50
2018-08-19T09:41:11.482Z,30.60
2018-08-19T09:43:41.762Z,30.70
2018-08-19T09:46:11.070Z,30.80
2018-08-19T09:48:40.374Z,30.80
2018-08-19T09:51:13.787Z,30.90
2018-08-19T09:53:43.138Z,31.00
2018-08-19T09:56:12.673Z,31.10
2018-08-19T09:58:46.067Z,31.20
2018-08-19T10:01:19.558Z,31.20
2018-08-19T10:03:48.803Z,31.30
2018-08-19T10:06:18.192Z,31.40
2018-08-19T10:08:47.483Z,31.40
2018-08-19T10:11:16.865Z,31.50
2018-08-19T10:13:48.376Z,31.60
2018-08-19T10:16:17.908Z,31.70
2018-08-19T10:18:47.160Z,31.70
2018-08-19T10:21:18.766Z,31.70
2018-08-19T10:23:48.050Z,31.80
2018-08-19T10:26:17.863Z,31.90
2018-08-19T10:28:47.718Z,31.90
2018-08-19T10:31:18.449Z,31.90
2018-08-19T10:33:50.984Z,31.90
2018-08-19T10:36:20.444Z,31.90
2018-08-19T10:38:49.739Z,31.90
2018-08-19T10:41:19.545Z,32.00
2018-08-19T10:43:48.771Z,32.00
2018-08-19T10:46:18.091Z,32.00
2018-08-19T10:48:47.425Z,32.20
2018-08-19T10:51:16.708Z,32.20
2018-08-19T10:53:46.122Z,32.20
2018-08-19T10:56:15.477Z,32.20
2018-08-19T10:58:49.761Z,32.30
2018-08-19T11:01:19.996Z,32.40
2018-08-19T11:03:49.732Z,32.40
2018-08-19T11:06:19.107Z,32.40
2018-08-19T11:08:55.800Z,32.50
2018-08-19T11:11:25.859Z,32.40
2018-08-19T11:13:55.116Z,32.50
2018-08-19T11:16:24.536Z,32.50
2018-08-19T11:18:54.928Z,32.50
2018-08-19T11:21:29.831Z,32.60
2018-08-19T11:23:59.991Z,32.70
2018-08-19T11:26:29.503Z,32.90
2018-08-19T11:28:59.872Z,32.90
2018-08-19T11:31:34.752Z,32.80
2018-08-19T11:34:07.303Z,32.80
2018-08-19T11:36:42.303Z,32.80
2018-08-19T11:39:13.651Z,32.80
2018-08-19T11:41:43.026Z,32.80
2018-08-19T11:44:14.773Z,32.80
2018-08-19T11:46:44.170Z,32.90
2018-08-19T11:49:15.986Z,32.90
2018-08-19T11:51:50.304Z,33.00
2018-08-19T11:54:20.546Z,33.00
2018-08-19T11:56:57.062Z,33.00
2018-08-19T11:59:33.566Z,33.10
2018-08-19T12:02:03.003Z,32.90
2018-08-19T12:04:32.289Z,32.90
2018-08-19T12:07:01.930Z,32.80
2018-08-19T12:09:31.340Z,32.80
2018-08-19T12:12:00.770Z,32.80
2018-08-19T12:14:33.050Z,32.80
2018-08-19T12:17:03.233Z,32.80
2018-08-19T12:19:33.419Z,32.70
2018-08-19T12:22:04.808Z,32.70
2018-08-19T12:24:37.974Z,32.70
2018-08-19T12:27:09.274Z,32.70
2018-08-19T12:29:39.773Z,32.60
2018-08-19T12:32:26.708Z,32.60
2018-08-19T12:34:58.480Z,32.60
2018-08-19T12:37:29.084Z,32.60
2018-08-19T12:39:59.105Z,32.50
2018-08-19T12:42:29.220Z,32.50
2018-08-19T12:45:02.720Z,32.50
2018-08-19T12:47:32.428Z,32.40
2018-08-19T12:50:03.847Z,32.40
2018-08-19T12:52:34.388Z,32.30
2018-08-19T12:55:07.779Z,32.30
2018-08-19T12:57:38.197Z,32.30
2018-08-19T13:00:19.629Z,32.20
2018-08-19T13:02:50.747Z,32.20
2018-08-19T13:05:20.876Z,32.20
2018-08-19T13:07:50.390Z,32.20
2018-08-19T13:10:19.827Z,32.10
2018-08-19T13:12:56.363Z,32.10
2018-08-19T13:15:28.093Z,32.10
2018-08-19T13:17:57.601Z,32.10
2018-08-19T13:20:27.190Z,32.10
2018-08-19T13:23:02.824Z,32.10
2018-08-19T13:25:32.435Z,32.10
2018-08-19T13:28:01.820Z,32.00
2018-08-19T13:30:31.158Z,31.90
2018-08-19T13:33:00.643Z,31.90
2018-08-19T13:35:30.010Z,31.90
2018-08-19T13:37:59.367Z,31.90
2018-08-19T13:40:28.735Z,31.90
2018-08-19T13:42:57.988Z,31.90
2018-08-19T13:45:28.540Z,31.90
2018-08-19T13:47:57.880Z,31.80
2018-08-19T13:50:27.337Z,31.80
2018-08-19T13:52:57.648Z,31.80
2018-08-19T13:55:27.478Z,31.80
2018-08-19T13:57:56.791Z,31.80
2018-08-19T14:00:30.220Z,31.70
2018-08-19T14:02:59.496Z,31.70
2018-08-19T14:05:29.074Z,31.70
2018-08-19T14:07:58.379Z,31.60
2018-08-19T14:10:27.668Z,31.60
2018-08-19T14:12:56.937Z,31.70
2018-08-19T14:15:26.332Z,31.60
2018-08-19T14:17:55.624Z,31.50
2018-08-19T14:20:24.950Z,31.50
2018-08-19T14:22:54.259Z,31.50
2018-08-19T14:25:23.533Z,31.50
2018-08-19T14:27:52.839Z,31.40
2018-08-19T14:30:22.230Z,31.50
2018-08-19T14:32:51.592Z,31.40
2018-08-19T14:35:20.982Z,31.40
2018-08-19T14:37:50.244Z,31.40
2018-08-19T14:40:19.872Z,31.40
2018-08-19T14:42:49.056Z,31.30
2018-08-19T14:45:18.472Z,31.30
2018-08-19T14:47:47.785Z,31.30
2018-08-19T14:50:19.178Z,31.30
2018-08-19T14:52:48.695Z,31.30
2018-08-19T14:55:18.115Z,31.20
2018-08-19T14:57:47.462Z,31.20
2018-08-19T15:00:17.935Z,31.20
2018-08-19T15:02:47.198Z,31.20
2018-08-19T15:05:20.132Z,31.20
2018-08-19T15:07:49.840Z,31.20
2018-08-19T15:10:21.938Z,31.20
2018-08-19T15:12:51.286Z,31.10
2018-08-19T15:15:20.563Z,31.10
2018-08-19T15:17:57.026Z,31.10
2018-08-19T15:20:33.989Z,31.10
2018-08-19T15:23:14.524Z,31.10
2018-08-19T15:25:44.128Z,31.10
2018-08-19T15:28:13.467Z,31.00
2018-08-19T15:30:43.163Z,31.00
2018-08-19T15:33:13.534Z,31.00
2018-08-19T15:35:43.491Z,31.00
2018-08-19T15:38:13.072Z,31.00
2018-08-19T15:40:47.467Z,31.00
2018-08-19T15:43:16.833Z,31.00
2018-08-19T15:45:46.627Z,31.00
2018-08-19T15:48:16.007Z,31.00
2018-08-19T15:50:45.371Z,30.90
2018-08-19T15:53:14.829Z,30.90
2018-08-19T15:55:44.140Z,30.90
2018-08-19T15:58:13.423Z,30.90
2018-08-19T16:00:42.887Z,30.90
2018-08-19T16:03:13.155Z,30.90
2018-08-19T16:05:42.421Z,30.90
2018-08-19T16:08:11.725Z,30.90
2018-08-19T16:10:41.287Z,30.80
2018-08-19T16:13:11.911Z,30.80
2018-08-19T16:15:41.278Z,30.70
2018-08-19T16:18:10.657Z,30.70
2018-08-19T16:20:40.100Z,30.70
2018-08-19T16:23:09.474Z,30.70
2018-08-19T16:25:38.825Z,30.70
2018-08-19T16:28:08.134Z,30.70
2018-08-19T16:30:37.407Z,30.70
2018-08-19T16:33:06.718Z,30.70
2018-08-19T16:35:36.119Z,30.70
2018-08-19T16:38:05.771Z,30.70
2018-08-19T16:40:35.116Z,30.70
2018-08-19T16:43:04.517Z,30.70
2018-08-19T16:45:33.842Z,30.70
2018-08-19T16:48:03.143Z,30.70
2018-08-19T16:50:32.582Z,30.70
2018-08-19T16:53:01.782Z,30.70
2018-08-19T16:55:42.070Z,30.70
2018-08-19T16:58:11.369Z,30.60
2018-08-19T17:00:40.607Z,30.60
2018-08-19T17:03:25.659Z,30.60
2018-08-19T17:05:55.838Z,30.60
2018-08-19T17:08:25.131Z,30.60
2018-08-19T17:10:54.458Z,30.60
2018-08-19T17:13:23.699Z,30.60
2018-08-19T17:15:53.020Z,30.50
2018-08-19T17:18:22.307Z,30.50
2018-08-19T17:20:52.531Z,30.50
2018-08-19T17:23:23.152Z,30.50
2018-08-19T17:25:52.677Z,30.50
2018-08-19T17:28:25.295Z,30.50
2018-08-19T17:30:55.595Z,30.40
2018-08-19T17:33:27.110Z,30.40
2018-08-19T17:35:56.471Z,30.40
2018-08-19T17:38:29.440Z,30.40
2018-08-19T17:40:58.832Z,30.40
2018-08-19T17:43:33.117Z,30.40
2018-08-19T17:46:10.117Z,30.30
2018-08-19T17:48:40.488Z,30.30
2018-08-19T17:51:21.697Z,30.30
2018-08-19T17:53:51.032Z,30.30
2018-08-19T17:56:20.882Z,30.30
2018-08-19T17:58:52.164Z,30.30
2018-08-19T18:01:21.791Z,30.20
2018-08-19T18:03:51.066Z,30.20
2018-08-19T18:06:20.434Z,30.30
2018-08-19T18:08:51.766Z,30.30
2018-08-19T18:11:21.507Z,30.20
2018-08-19T18:13:50.917Z,30.20
2018-08-19T18:16:20.260Z,30.20
2018-08-19T18:18:49.640Z,30.20
2018-08-19T18:21:19.159Z,30.20
2018-08-19T18:23:49.515Z,30.10
2018-08-19T18:26:19.895Z,30.00
2018-08-19T18:28:49.477Z,30.00
2018-08-19T18:31:21.967Z,30.00
2018-08-19T18:33:59.669Z,29.90
2018-08-19T18:36:31.378Z,29.90
2018-08-19T18:39:01.227Z,29.90
2018-08-19T18:41:36.843Z,29.90
2018-08-19T18:44:08.304Z,29.80
2018-08-19T18:46:37.832Z,29.80
2018-08-19T18:49:11.129Z,29.70
2018-08-19T18:51:41.591Z,29.70
2018-08-19T18:54:17.578Z,29.70
2018-08-19T18:56:47.065Z,29.70
2018-08-19T18:59:19.577Z,29.70
2018-08-19T19:01:48.915Z,29.80
2018-08-19T19:04:18.354Z,29.80
2018-08-19T19:06:47.754Z,29.70
2018-08-19T19:09:17.238Z,29.80
2018-08-19T19:11:47.793Z,29.70
2018-08-19T19:14:19.533Z,29.80
2018-08-19T19:16:54.538Z,29.80
2018-08-19T19:19:24.056Z,29.70
2018-08-19T19:21:59.334Z,29.70
2018-08-19T19:24:33.902Z,29.70
2018-08-19T19:27:03.252Z,29.60
2018-08-19T19:29:33.029Z,29.70
2018-08-19T19:32:11.956Z,29.70
2018-08-19T19:34:41.996Z,29.70
2018-08-19T19:37:11.432Z,29.60
2018-08-19T19:39:40.868Z,29.50
2018-08-19T19:42:11.325Z,29.50
2018-08-19T19:44:40.828Z,29.50
2018-08-19T19:47:10.827Z,29.50
2018-08-19T19:49:46.808Z,29.50
2018-08-19T19:52:16.032Z,29.60
2018-08-19T19:54:45.314Z,29.60
2018-08-19T19:57:14.667Z,29.60
2018-08-19T19:59:44.527Z,29.60
2018-08-19T20:02:29.167Z,29.60
2018-08-19T20:04:58.514Z,29.60
2018-08-19T20:07:28.317Z,29.60
2018-08-19T20:09:57.679Z,29.60
2018-08-19T20:12:28.369Z,29.60
2018-08-19T20:15:00.323Z,29.60
2018-08-19T20:17:29.707Z,29.60
2018-08-19T20:19:59.015Z,29.60
2018-08-19T20:22:28.357Z,29.60
2018-08-19T20:24:57.646Z,29.50
2018-08-19T20:27:26.876Z,29.50
2018-08-19T20:29:56.352Z,29.50
2018-08-19T20:32:25.650Z,29.50
2018-08-19T20:34:54.965Z,29.50
2018-08-19T20:37:25.985Z,29.50
2018-08-19T20:39:55.899Z,29.40
2018-08-19T20:42:25.336Z,29.40
2018-08-19T20:44:54.762Z,29.40
2018-08-19T20:47:24.013Z,29.40
2018-08-19T20:49:53.435Z,29.40
2018-08-19T20:52:32.719Z,29.40
2018-08-19T20:55:02.007Z,29.40
2018-08-19T20:57:31.318Z,29.40
2018-08-19T21:00:00.606Z,29.40
2018-08-19T21:02:29.939Z,29.40
2018-08-19T21:04:59.398Z,29.40
2018-08-19T21:07:28.719Z,29.40
2018-08-19T21:09:58.003Z,29.40
2018-08-19T21:12:27.355Z,29.30
2018-08-19T21:14:56.637Z,29.40
2018-08-19T21:17:39.067Z,29.30
2018-08-19T21:20:08.824Z,29.40
2018-08-19T21:22:38.312Z,29.40
2018-08-19T21:25:07.646Z,29.40
2018-08-19T21:27:39.185Z,29.50
2018-08-19T21:30:08.794Z,29.40
2018-08-19T21:32:38.138Z,29.40
2018-08-19T21:35:09.133Z,29.40
2018-08-19T21:37:38.997Z,29.40
2018-08-19T21:40:09.114Z,29.50
2018-08-19T21:42:49.177Z,29.40
2018-08-19T21:45:20.259Z,29.40
2018-08-19T21:47:49.612Z,29.40
2018-08-19T21:50:18.878Z,29.40
2018-08-19T21:53:02.601Z,29.40
2018-08-19T21:55:52.078Z,29.30
2018-08-19T21:58:21.752Z,29.30
2018-08-19T22:00:58.919Z,29.20
2018-08-19T22:03:33.524Z,29.20
2018-08-19T22:06:09.906Z,29.20
2018-08-19T22:08:39.758Z,29.20
2018-08-19T22:11:09.195Z,29.20
2018-08-19T22:13:38.573Z,29.30
2018-08-19T22:16:08.239Z,29.20
2018-08-19T22:18:37.783Z,29.20
2018-08-19T22:21:16.407Z,29.20
2018-08-19T22:23:47.046Z,29.20
2018-08-19T22:26:19.300Z,29.20
2018-08-19T22:29:02.345Z,29.20
2018-08-19T22:31:31.655Z,29.20
2018-08-19T22:34:00.990Z,29.20
2018-08-19T22:36:30.386Z,29.20
2018-08-19T22:39:00.007Z,29.10
2018-08-19T22:41:31.004Z,29.10
2018-08-19T22:44:00.379Z,29.10
2018-08-19T22:46:29.950Z,29.10
2018-08-19T22:48:59.627Z,29.10
2018-08-19T22:51:32.479Z,29.10
2018-08-19T22:54:01.871Z,29.10
2018-08-19T22:56:31.114Z,29.20
2018-08-19T22:59:00.366Z,29.10
2018-08-19T23:01:35.033Z,29.10
2018-08-19T23:04:04.791Z,29.10
2018-08-19T23:06:34.430Z,29.10
2018-08-19T23:09:05.102Z,29.10
2018-08-19T23:11:39.426Z,29.10
2018-08-19T23:14:19.454Z,29.10
2018-08-19T23:16:48.721Z,29.10
2018-08-19T23:19:20.598Z,29.10
2018-08-19T23:21:50.144Z,29.00
2018-08-19T23:24:19.413Z,29.00
2018-08-19T23:26:48.664Z,29.00
2018-08-19T23:29:17.923Z,29.00
2018-08-19T23:31:47.192Z,29.00
2018-08-19T23:34:16.452Z,29.00
2018-08-19T23:36:45.780Z,29.00
2018-08-19T23:39:15.105Z,29.00
2018-08-19T23:41:44.408Z,28.90
2018-08-19T23:44:13.725Z,29.00
2018-08-19T23:46:42.996Z,29.00
2018-08-19T23:49:12.307Z,28.90
2018-08-19T23:51:41.645Z,29.00
2018-08-19T23:54:11.031Z,28.90
2018-08-19T23:56:40.321Z,28.90
2018-08-19T23:59:09.579Z,28.90
